Time;durP1;ratioP1;P1;durP2;ratioP2;P2;SDS_P1;SDS_P2;PMS_P1;PMS_P2;Temp;Humidity;BMP_temperature;BMP_pressure;BME280_temperature;BME280_humidity;BME280_pressure;Samples;Min_cycle;Max_cycle;Signal;HPM_P1;HPM_P2
2023/03/05 00:01:16;;;;;;;23.35;15.18;;;4.90;99.90;;;;;;5024418;28;21713;-69
2023/03/05 00:03:42;;;;;;;24.88;13.30;;;4.80;99.90;;;;;;5029996;28;20188;-68
2023/03/05 00:06:11;;;;;;;22.77;14.47;;;5.20;99.90;;;;;;5030036;28;20192;-69
2023/03/05 00:08:37;;;;;;;23.63;14.88;;;5.10;99.90;;;;;;5024118;28;20212;-69
2023/03/05 00:11:08;;;;;;;25.65;13.73;;;5.10;99.90;;;;;;5028407;28;20186;-69
2023/03/05 00:13:35;;;;;;;24.42;14.30;;;4.70;99.90;;;;;;5027043;28;20250;-69
2023/03/05 00:16:06;;;;;;;21.00;13.32;;;5.10;99.90;;;;;;5030907;28;20232;-68
2023/03/05 00:18:33;;;;;;;21.15;13.38;;;5.40;99.90;;;;;;5027047;28;20300;-69
2023/03/05 00:20:58;;;;;;;22.13;14.52;;;5.20;99.90;;;;;;5028653;28;20307;-67
2023/03/05 00:23:27;;;;;;;23.30;14.57;;;5.40;99.90;;;;;;5023689;28;20332;-68
2023/03/05 00:25:53;;;;;;;25.80;15.48;;;5.30;99.90;;;;;;5028851;28;20679;-68
2023/03/05 00:28:18;;;;;;;23.23;15.43;;;5.60;99.90;;;;;;5027602;28;20284;-68
2023/03/05 00:30:45;;;;;;;22.03;13.67;;;5.30;99.90;;;;;;5029135;28;20190;-69
2023/03/05 00:33:12;;;;;;;22.80;13.65;;;5.20;99.90;;;;;;5025629;28;20200;-69
2023/03/05 00:35:43;;;;;;;24.85;14.75;;;5.30;99.90;;;;;;5028537;28;20317;-69
2023/03/05 00:38:09;;;;;;;23.27;13.90;;;5.10;99.90;;;;;;5028189;28;20894;-68
2023/03/05 00:40:37;;;;;;;22.70;13.60;;;4.80;99.90;;;;;;5027061;28;20186;-68
2023/03/05 00:43:03;;;;;;;21.98;13.95;;;5.30;99.90;;;;;;5026549;28;20189;-69
2023/03/05 00:45:29;;;;;;;19.13;12.80;;;5.30;99.90;;;;;;5026040;28;20235;-69
2023/03/05 00:47:55;;;;;;;26.07;14.80;;;5.40;99.90;;;;;;5027023;28;20551;-69
2023/03/05 00:50:20;;;;;;;20.27;13.77;;;5.30;99.90;;;;;;5029757;28;20451;-69
2023/03/05 00:52:46;;;;;;;22.17;13.53;;;5.00;99.90;;;;;;5027880;28;21002;-69
2023/03/05 00:55:12;;;;;;;24.93;14.20;;;5.00;99.90;;;;;;5027119;28;20205;-72
2023/03/05 00:57:37;;;;;;;24.40;14.33;;;5.20;99.90;;;;;;5027872;28;20472;-68
2023/03/05 01:00:05;;;;;;;23.10;13.40;;;5.20;99.90;;;;;;5029297;28;20211;-68
2023/03/05 01:02:31;;;;;;;22.20;12.60;;;5.10;99.90;;;;;;5027503;28;20189;-69
2023/03/05 01:04:56;;;;;;;20.53;14.10;;;4.60;99.90;;;;;;5026183;28;20547;-69
2023/03/05 01:07:22;;;;;;;18.50;12.83;;;5.30;99.90;;;;;;5028325;28;20184;-68
2023/03/05 01:09:48;;;;;;;26.20;14.10;;;5.30;99.90;;;;;;5027797;28;20224;-69
2023/03/05 01:12:13;;;;;;;24.10;14.30;;;5.30;99.90;;;;;;5029156;28;20220;-68
2023/03/05 01:14:39;;;;;;;20.60;12.50;;;5.20;99.90;;;;;;5028910;28;20193;-68
2023/03/05 01:17:05;;;;;;;19.40;12.27;;;5.00;99.90;;;;;;5026420;28;20291;-69
2023/03/05 01:19:30;;;;;;;21.30;13.10;;;5.10;99.90;;;;;;5027593;28;20212;-69
2023/03/05 01:21:56;;;;;;;23.07;13.40;;;5.10;99.90;;;;;;5028453;28;20188;-67
2023/03/05 01:24:22;;;;;;;19.07;12.77;;;5.70;99.90;;;;;;5027006;28;20456;-68
2023/03/05 01:26:48;;;;;;;19.83;13.27;;;5.20;99.90;;;;;;5028344;28;20186;-68
2023/03/05 01:29:14;;;;;;;24.73;12.18;;;4.40;99.90;;;;;;5028514;28;20209;-67
2023/03/05 01:31:40;;;;;;;21.15;13.52;;;5.10;99.90;;;;;;5028383;28;20208;-68
2023/03/05 01:34:05;;;;;;;21.67;14.53;;;5.20;99.90;;;;;;5024400;28;20863;-68
2023/03/05 01:36:31;;;;;;;19.80;13.33;;;5.30;99.90;;;;;;5027435;28;20519;-68
2023/03/05 01:38:58;;;;;;;24.80;13.93;;;5.20;99.90;;;;;;5026425;28;20241;-68
2023/03/05 01:41:24;;;;;;;19.45;13.85;;;5.50;99.90;;;;;;5026025;28;20186;-68
2023/03/05 01:43:51;;;;;;;19.27;12.25;;;5.40;99.90;;;;;;5027400;28;20182;-68
2023/03/05 01:46:45;;;;;;;26.77;13.98;;;5.20;99.90;;;;;;5026288;28;20189;-68
2023/03/05 01:49:22;;;;;;;17.02;11.07;;;5.40;99.90;;;;;;5026848;28;20289;-68
2023/03/05 01:52:09;;;;;;;22.52;13.00;;;5.50;99.90;;;;;;5025205;28;20189;-68
2023/03/05 01:55:01;;;;;;;19.05;12.18;;;5.50;99.90;;;;;;5027517;28;20179;-68
2023/03/05 01:57:33;;;;;;;19.92;12.82;;;5.40;99.90;;;;;;5027462;28;20205;-68
2023/03/05 02:00:05;;;;;;;21.63;12.27;;;5.40;99.90;;;;;;5023791;28;20683;-67
2023/03/05 02:02:31;;;;;;;19.77;12.63;;;5.20;99.90;;;;;;5025688;28;20275;-68
2023/03/05 02:05:07;;;;;;;20.73;13.00;;;5.20;99.90;;;;;;5029170;28;20313;-68
2023/03/05 02:07:36;;;;;;;25.00;13.35;;;5.10;99.90;;;;;;5027194;28;20199;-68
2023/03/05 02:10:13;;;;;;;21.92;14.38;;;5.00;99.90;;;;;;5024295;28;20682;-68
2023/03/05 02:12:39;;;;;;;21.27;12.68;;;4.70;99.90;;;;;;5032052;28;20805;-68
2023/03/05 02:15:06;;;;;;;20.55;12.80;;;5.10;99.90;;;;;;5029438;28;20193;-68
2023/03/05 02:17:31;;;;;;;20.85;12.85;;;5.00;99.90;;;;;;5025682;28;20212;-68
2023/03/05 02:20:05;;;;;;;20.73;12.90;;;5.10;99.90;;;;;;5026665;28;20421;-68
2023/03/05 02:22:31;;;;;;;23.70;14.07;;;5.00;99.90;;;;;;5027476;28;20273;-68
2023/03/05 02:24:57;;;;;;;21.63;13.10;;;5.10;99.90;;;;;;5027101;28;20727;-68
2023/03/05 02:27:33;;;;;;;20.67;12.33;;;5.40;99.90;;;;;;5028363;28;20663;-68
2023/03/05 02:30:00;;;;;;;24.00;14.07;;;5.20;99.90;;;;;;5025713;28;20595;-68
2023/03/05 02:32:26;;;;;;;21.58;13.63;;;5.20;99.90;;;;;;5026625;28;20213;-68
2023/03/05 02:34:52;;;;;;;21.05;12.82;;;5.20;99.90;;;;;;5028360;28;20189;-68
2023/03/05 02:37:18;;;;;;;21.03;13.77;;;4.60;99.90;;;;;;5027029;28;20209;-68
2023/03/05 02:39:43;;;;;;;22.00;13.47;;;5.00;99.90;;;;;;5025824;28;20201;-67
2023/03/05 02:42:09;;;;;;;22.90;13.60;;;5.20;99.90;;;;;;5025864;28;20193;-67
2023/03/05 02:44:35;;;;;;;22.80;13.40;;;4.90;99.90;;;;;;5027465;28;20178;-67
2023/03/05 02:47:00;;;;;;;19.77;12.67;;;4.80;99.90;;;;;;5030963;28;20195;-67
2023/03/05 02:49:27;;;;;;;20.53;13.20;;;5.10;99.90;;;;;;5030558;28;20743;-67
2023/03/05 02:51:52;;;;;;;23.58;14.48;;;5.00;99.90;;;;;;5027598;28;20192;-67
2023/03/05 02:54:18;;;;;;;21.20;13.50;;;5.10;99.90;;;;;;5030241;28;20192;-68
2023/03/05 02:56:44;;;;;;;22.97;13.43;;;5.00;99.90;;;;;;5033202;28;20219;-68
2023/03/05 02:59:09;;;;;;;21.50;13.40;;;5.10;99.90;;;;;;5030751;28;20264;-68
2023/03/05 03:01:35;;;;;;;22.40;14.10;;;5.10;99.90;;;;;;5031110;28;20267;-68
2023/03/05 03:04:00;;;;;;;23.07;12.90;;;4.40;99.90;;;;;;5028804;28;20726;-68
2023/03/05 03:06:26;;;;;;;19.83;13.00;;;5.30;99.90;;;;;;5031324;28;20228;-68
2023/03/05 03:08:51;;;;;;;18.50;12.20;;;4.70;99.90;;;;;;5027718;28;20678;-68
2023/03/05 03:11:17;;;;;;;21.60;13.07;;;4.80;99.90;;;;;;5031474;28;20204;-68
2023/03/05 03:13:43;;;;;;;21.20;12.27;;;5.00;99.90;;;;;;5029991;28;20282;-68
2023/03/05 03:16:14;;;;;;;23.65;12.60;;;5.60;99.90;;;;;;5030691;28;20247;-68
2023/03/05 03:18:40;;;;;;;18.83;11.90;;;5.10;99.90;;;;;;5026166;28;20234;-68
2023/03/05 03:21:06;;;;;;;16.60;10.30;;;5.10;99.90;;;;;;5031517;28;20186;-68
2023/03/05 03:23:32;;;;;;;15.27;11.25;;;5.10;99.90;;;;;;5028300;28;20452;-68
2023/03/05 03:25:58;;;;;;;18.50;11.55;;;5.20;99.90;;;;;;5030501;28;20285;-68
2023/03/05 03:28:23;;;;;;;16.87;9.73;;;5.20;99.90;;;;;;5030501;28;20288;-68
2023/03/05 03:30:49;;;;;;;19.70;10.07;;;5.20;99.90;;;;;;5030142;28;20213;-68
2023/03/05 03:33:16;;;;;;;16.10;10.73;;;5.00;99.90;;;;;;5029690;28;20646;-68
2023/03/05 03:35:43;;;;;;;19.63;11.10;;;5.10;99.90;;;;;;5028297;28;20263;-68
2023/03/05 03:38:10;;;;;;;15.50;9.38;;;5.00;99.90;;;;;;5031058;28;20681;-68
2023/03/05 03:40:36;;;;;;;17.35;10.25;;;5.60;99.90;;;;;;5029235;28;20189;-68
2023/03/05 03:43:02;;;;;;;16.83;9.27;;;5.50;99.90;;;;;;5028993;28;20209;-68
2023/03/05 03:45:28;;;;;;;16.20;9.30;;;5.50;99.90;;;;;;5032681;28;20181;-68
2023/03/05 03:47:53;;;;;;;13.53;8.27;;;5.50;99.90;;;;;;5029488;28;20247;-68
2023/03/05 03:50:20;;;;;;;16.30;8.73;;;5.40;99.90;;;;;;5025580;28;20228;-68
2023/03/05 03:52:46;;;;;;;14.75;8.23;;;5.60;99.90;;;;;;5028790;28;20213;-68
2023/03/05 03:55:12;;;;;;;13.68;8.60;;;5.70;99.90;;;;;;5027880;28;20190;-68
2023/03/05 03:57:37;;;;;;;16.53;9.30;;;5.60;99.90;;;;;;5027165;28;20501;-68
2023/03/05 04:00:08;;;;;;;16.03;9.40;;;5.30;99.90;;;;;;5027732;28;20489;-68
2023/03/05 04:02:34;;;;;;;14.45;8.50;;;5.30;99.90;;;;;;5024590;28;20278;-68
2023/03/05 04:05:00;;;;;;;13.23;8.10;;;5.50;99.90;;;;;;5028862;28;20345;-68
2023/03/05 04:07:25;;;;;;;16.53;9.33;;;5.40;99.90;;;;;;5029152;28;20192;-67
2023/03/05 04:09:51;;;;;;;17.60;7.80;;;5.50;99.90;;;;;;5024723;28;20230;-68
2023/03/05 04:12:17;;;;;;;16.57;10.40;;;5.40;99.90;;;;;;5026846;28;20725;-68
2023/03/05 04:14:44;;;;;;;15.13;9.10;;;5.50;99.90;;;;;;5029912;28;20726;-68
2023/03/05 04:17:11;;;;;;;18.80;9.05;;;5.40;99.90;;;;;;5028451;28;20567;-68
2023/03/05 04:19:36;;;;;;;15.10;8.82;;;5.40;99.90;;;;;;5026736;28;20214;-68
2023/03/05 04:22:02;;;;;;;18.30;8.97;;;5.50;99.90;;;;;;5029409;28;20193;-68
2023/03/05 04:24:27;;;;;;;12.77;8.80;;;5.20;99.90;;;;;;5028297;28;20189;-68
2023/03/05 04:26:53;;;;;;;13.30;8.27;;;5.40;99.90;;;;;;5026365;28;20226;-67
2023/03/05 04:29:19;;;;;;;14.20;8.40;;;5.10;99.90;;;;;;5029437;28;20264;-68
2023/03/05 04:31:44;;;;;;;16.20;10.03;;;5.20;99.90;;;;;;5026874;28;20197;-68
2023/03/05 04:34:10;;;;;;;17.83;10.07;;;5.20;99.90;;;;;;5027389;28;20193;-68
2023/03/05 04:36:36;;;;;;;14.80;8.63;;;5.20;99.90;;;;;;5028748;28;20184;-68
2023/03/05 04:39:02;;;;;;;15.20;8.50;;;5.10;99.90;;;;;;5023505;28;20298;-68
2023/03/05 04:41:28;;;;;;;17.63;9.32;;;5.30;99.90;;;;;;5025916;28;20251;-68
2023/03/05 04:43:53;;;;;;;17.17;9.27;;;5.40;99.90;;;;;;5028607;28;20178;-68
2023/03/05 04:46:19;;;;;;;15.53;8.70;;;5.30;99.90;;;;;;5029311;28;20488;-68
2023/03/05 04:48:45;;;;;;;14.40;8.83;;;4.60;99.90;;;;;;5028296;28;20303;-68
2023/03/05 04:51:10;;;;;;;15.63;9.53;;;5.10;99.90;;;;;;5026349;28;20188;-68
2023/03/05 04:53:36;;;;;;;15.53;9.57;;;5.10;99.90;;;;;;5028219;28;20213;-68
2023/03/05 04:56:02;;;;;;;14.13;9.80;;;5.20;99.90;;;;;;5028819;28;20237;-68
2023/03/05 04:58:28;;;;;;;17.63;10.00;;;5.30;99.90;;;;;;5028431;28;20209;-67
2023/03/05 05:00:53;;;;;;;18.38;9.55;;;5.10;99.90;;;;;;5026457;28;20465;-68
2023/03/05 05:03:19;;;;;;;17.47;9.63;;;5.20;99.90;;;;;;5027241;28;20297;-68
2023/03/05 05:05:44;;;;;;;14.63;8.63;;;5.20;99.90;;;;;;5029062;28;20192;-67
2023/03/05 05:08:10;;;;;;;14.97;9.20;;;5.20;99.90;;;;;;5028713;28;20727;-67
2023/03/05 05:10:38;;;;;;;15.93;9.23;;;5.50;99.90;;;;;;5028323;28;20182;-68
2023/03/05 05:13:05;;;;;;;15.25;8.45;;;5.60;99.90;;;;;;5025616;28;20208;-68
2023/03/05 05:15:31;;;;;;;15.23;9.00;;;5.90;99.90;;;;;;5025532;28;20197;-68
2023/03/05 05:17:57;;;;;;;12.93;8.57;;;5.50;99.90;;;;;;5024619;28;20205;-68
2023/03/05 05:20:23;;;;;;;16.52;9.70;;;5.50;99.90;;;;;;5030306;28;20275;-68
2023/03/05 05:22:49;;;;;;;14.80;9.33;;;5.50;99.90;;;;;;5025982;28;20276;-68
2023/03/05 05:25:15;;;;;;;15.85;9.75;;;5.50;99.90;;;;;;5027955;28;20185;-67
2023/03/05 05:27:40;;;;;;;14.63;8.53;;;5.60;99.90;;;;;;5027593;28;20185;-68
2023/03/05 05:30:07;;;;;;;14.67;8.63;;;5.70;99.90;;;;;;5029055;28;20211;-68
2023/03/05 05:32:33;;;;;;;15.13;8.90;;;5.40;99.90;;;;;;5027391;28;20185;-67
2023/03/05 05:34:59;;;;;;;13.87;8.90;;;4.80;99.90;;;;;;5026398;28;20748;-68
2023/03/05 05:37:25;;;;;;;18.33;8.90;;;5.20;99.90;;;;;;5028402;28;20471;-68
2023/03/05 05:39:51;;;;;;;16.65;10.70;;;5.40;99.90;;;;;;5027087;28;20401;-68
2023/03/05 05:42:19;;;;;;;16.10;10.68;;;5.60;99.90;;;;;;5027975;28;20185;-68
2023/03/05 05:44:46;;;;;;;14.70;8.77;;;5.50;99.90;;;;;;5027681;28;20553;-68
2023/03/05 05:47:12;;;;;;;16.92;10.45;;;5.50;99.90;;;;;;5028302;28;20655;-68
2023/03/05 05:49:38;;;;;;;12.57;8.30;;;5.10;99.90;;;;;;5026385;28;20219;-67
2023/03/05 05:52:04;;;;;;;16.00;9.57;;;5.30;99.90;;;;;;5025984;28;20189;-68
2023/03/05 05:54:30;;;;;;;15.27;9.98;;;5.20;99.90;;;;;;5027474;28;20534;-68
2023/03/05 05:56:55;;;;;;;17.67;11.10;;;5.10;99.90;;;;;;5028245;28;20312;-69
2023/03/05 05:59:21;;;;;;;13.93;9.73;;;5.40;99.90;;;;;;5028212;28;20217;-69
2023/03/05 06:01:47;;;;;;;16.80;9.47;;;4.80;99.90;;;;;;5025867;28;20608;-69
2023/03/05 06:04:12;;;;;;;15.63;9.43;;;5.50;99.90;;;;;;5029902;28;20193;-70
2023/03/05 06:06:38;;;;;;;16.87;10.70;;;5.60;99.90;;;;;;5028873;28;20765;-68
2023/03/05 06:09:04;;;;;;;14.50;9.70;;;5.40;99.90;;;;;;5027226;28;20213;-67
2023/03/05 06:11:30;;;;;;;17.43;10.20;;;5.60;99.90;;;;;;5027115;28;20189;-68
2023/03/05 06:13:56;;;;;;;16.40;9.10;;;5.50;99.90;;;;;;5027878;28;20460;-70
2023/03/05 06:16:23;;;;;;;21.23;11.68;;;5.50;99.90;;;;;;5030878;28;20178;-70
2023/03/05 06:18:52;;;;;;;19.80;10.88;;;5.50;99.90;;;;;;5025529;28;20231;-71
2023/03/05 06:21:19;;;;;;;15.20;9.82;;;5.50;99.90;;;;;;5022864;28;20209;-70
2023/03/05 06:23:46;;;;;;;15.15;9.02;;;5.60;99.90;;;;;;5027909;28;20200;-68
2023/03/05 06:26:16;;;;;;;16.25;10.02;;;5.70;99.90;;;;;;5021844;28;20267;-68
2023/03/05 06:28:41;;;;;;;19.70;10.70;;;5.40;99.90;;;;;;5030435;28;20549;-68
2023/03/05 06:31:09;;;;;;;16.17;10.47;;;5.70;99.90;;;;;;5026368;28;20198;-67
2023/03/05 06:33:36;;;;;;;16.63;11.18;;;5.50;99.90;;;;;;5027906;28;20205;-69
2023/03/05 06:36:03;;;;;;;16.75;11.55;;;5.10;99.90;;;;;;5031981;28;20193;-71
2023/03/05 06:38:29;;;;;;;21.67;10.57;;;5.30;99.90;;;;;;5030093;28;20224;-69
2023/03/05 06:40:55;;;;;;;15.77;11.17;;;5.90;99.90;;;;;;5026132;28;20603;-71
2023/03/05 06:43:20;;;;;;;17.37;11.10;;;5.90;99.90;;;;;;5028805;28;20201;-73
2023/03/05 06:45:46;;;;;;;15.80;11.33;;;6.10;99.90;;;;;;5029900;28;20197;-71
2023/03/05 06:48:11;;;;;;;16.97;10.80;;;5.40;99.90;;;;;;5028159;28;20231;-69
2023/03/05 06:50:37;;;;;;;15.53;10.20;;;4.90;99.90;;;;;;5031962;28;20198;-70
2023/03/05 06:53:04;;;;;;;19.40;10.87;;;5.60;99.90;;;;;;5025573;28;20585;-69
2023/03/05 06:55:29;;;;;;;19.05;11.25;;;5.60;99.90;;;;;;5031650;28;20194;-69
2023/03/05 06:57:55;;;;;;;25.80;12.27;;;5.50;99.90;;;;;;5029437;28;20213;-69
2023/03/05 07:00:21;;;;;;;16.23;11.77;;;5.30;99.90;;;;;;5026005;28;20183;-69
2023/03/05 07:02:47;;;;;;;15.43;10.90;;;5.40;99.90;;;;;;5027711;28;20273;-69
2023/03/05 07:05:12;;;;;;;17.43;11.97;;;5.60;99.90;;;;;;5027902;28;20441;-70
2023/03/05 07:07:38;;;;;;;20.40;12.33;;;5.30;99.90;;;;;;5026662;28;20198;-69
2023/03/05 07:10:06;;;;;;;15.93;10.67;;;5.60;99.90;;;;;;5028727;28;20233;-71
2023/03/05 07:12:33;;;;;;;18.60;12.27;;;5.70;99.90;;;;;;5029393;28;20284;-67
2023/03/05 07:14:59;;;;;;;17.75;11.15;;;5.20;99.90;;;;;;5027805;28;20210;-67
2023/03/05 07:17:25;;;;;;;17.40;12.40;;;5.70;99.90;;;;;;5027239;28;20244;-65
2023/03/05 07:19:51;;;;;;;18.43;11.13;;;5.40;99.90;;;;;;5028839;28;20289;-64
2023/03/05 07:22:16;;;;;;;18.93;11.97;;;5.60;99.90;;;;;;5031801;28;20440;-65
2023/03/05 07:24:42;;;;;;;17.00;11.10;;;5.50;99.90;;;;;;5030140;28;20553;-65
2023/03/05 07:27:07;;;;;;;16.10;11.30;;;5.40;99.90;;;;;;5027443;28;20419;-65
2023/03/05 07:29:33;;;;;;;14.17;10.50;;;5.80;99.90;;;;;;5030621;28;20218;-65
2023/03/05 07:31:58;;;;;;;21.37;12.00;;;5.60;99.90;;;;;;5026990;28;20216;-68
2023/03/05 07:34:24;;;;;;;18.50;11.53;;;5.10;99.90;;;;;;5027016;28;20196;-69
2023/03/05 07:36:51;;;;;;;17.93;11.00;;;5.80;99.90;;;;;;5026185;28;20178;-72
2023/03/05 07:39:18;;;;;;;17.63;12.32;;;6.10;99.90;;;;;;5025734;28;20271;-73
2023/03/05 07:41:44;;;;;;;19.75;11.50;;;5.80;99.90;;;;;;5026972;28;20182;-72
2023/03/05 07:44:10;;;;;;;16.58;11.55;;;5.60;99.90;;;;;;5029124;28;20340;-72
2023/03/05 07:46:36;;;;;;;15.27;10.77;;;5.70;99.90;;;;;;5025805;28;20269;-73
2023/03/05 07:49:01;;;;;;;18.93;12.00;;;5.60;99.90;;;;;;5030170;28;20230;-73
2023/03/05 07:51:27;;;;;;;16.27;11.23;;;6.00;99.90;;;;;;5029933;28;20976;-73
2023/03/05 07:53:55;;;;;;;19.20;12.00;;;5.80;99.90;;;;;;5028013;28;20637;-73
2023/03/05 07:56:22;;;;;;;17.88;11.23;;;5.90;99.90;;;;;;5030441;28;20770;-73
2023/03/05 07:58:48;;;;;;;18.27;11.20;;;6.10;99.90;;;;;;5027560;28;20213;-73
2023/03/05 08:01:13;;;;;;;17.57;12.30;;;6.30;99.90;;;;;;5031263;28;20200;-74
2023/03/05 08:03:40;;;;;;;15.53;12.20;;;5.70;99.90;;;;;;5031278;28;20193;-73
2023/03/05 08:06:06;;;;;;;15.48;10.55;;;6.30;99.90;;;;;;5027848;28;20467;-73
2023/03/05 08:08:32;;;;;;;17.58;11.25;;;6.20;99.90;;;;;;5027303;28;20206;-74
2023/03/05 08:11:04;;;;;;;19.43;12.13;;;6.60;99.90;;;;;;5027590;28;20668;-73
2023/03/05 08:13:30;;;;;;;17.08;11.00;;;6.40;99.90;;;;;;5024512;28;20288;-74
2023/03/05 08:15:55;;;;;;;16.53;11.13;;;6.30;99.90;;;;;;5024201;28;20183;-74
2023/03/05 08:18:21;;;;;;;15.73;10.83;;;6.40;99.90;;;;;;5026534;28;20241;-72
2023/03/05 08:20:46;;;;;;;16.07;11.20;;;6.30;99.90;;;;;;5031185;28;22560;-73
2023/03/05 08:23:12;;;;;;;16.93;10.00;;;6.60;99.90;;;;;;5028960;28;20200;-73
2023/03/05 08:25:37;;;;;;;15.90;11.60;;;6.60;99.90;;;;;;5028525;28;20274;-73
2023/03/05 08:28:03;;;;;;;16.43;10.13;;;6.70;99.90;;;;;;5030655;28;20669;-73
2023/03/05 08:30:29;;;;;;;18.77;10.30;;;6.50;99.90;;;;;;5028092;28;20664;-73
2023/03/05 08:32:54;;;;;;;17.80;10.83;;;6.70;99.90;;;;;;5029342;28;20985;-73
2023/03/05 08:35:20;;;;;;;15.80;10.50;;;6.70;99.90;;;;;;5030812;28;20616;-73
2023/03/05 08:37:46;;;;;;;17.50;11.80;;;6.50;99.90;;;;;;5030168;28;20297;-73
2023/03/05 08:40:12;;;;;;;18.23;13.87;;;6.50;99.90;;;;;;5030065;28;20480;-72
2023/03/05 08:42:38;;;;;;;18.70;11.50;;;6.40;99.90;;;;;;5032066;28;20518;-73
2023/03/05 08:45:04;;;;;;;15.60;10.43;;;6.70;99.90;;;;;;5029204;28;21079;-73
2023/03/05 08:47:29;;;;;;;19.30;11.63;;;6.70;99.90;;;;;;5029261;28;20222;-72
2023/03/05 08:49:56;;;;;;;16.23;10.70;;;6.70;99.90;;;;;;5029674;28;20213;-72
2023/03/05 08:52:22;;;;;;;15.32;9.75;;;6.40;99.60;;;;;;5030319;28;20194;-72
2023/03/05 08:54:47;;;;;;;14.57;10.30;;;6.90;99.80;;;;;;5026487;28;20190;-73
2023/03/05 08:57:13;;;;;;;15.90;10.30;;;7.30;99.20;;;;;;5028818;28;20600;-73
2023/03/05 08:59:38;;;;;;;15.93;11.80;;;7.00;99.00;;;;;;5035200;28;20274;-73
2023/03/05 09:02:04;;;;;;;16.83;10.70;;;7.20;99.10;;;;;;5030029;28;20189;-72
2023/03/05 09:04:29;;;;;;;16.40;10.90;;;6.90;99.10;;;;;;5028375;28;20204;-73
2023/03/05 09:06:56;;;;;;;17.90;11.17;;;6.90;99.80;;;;;;5032983;28;20178;-76
2023/03/05 09:09:22;;;;;;;20.92;11.32;;;6.90;99.50;;;;;;5025069;28;20660;-73
2023/03/05 09:11:48;;;;;;;16.63;11.03;;;7.10;99.10;;;;;;5028775;28;20178;-73
2023/03/05 09:14:13;;;;;;;19.77;12.32;;;6.90;98.70;;;;;;5025558;28;20190;-73
2023/03/05 09:16:40;;;;;;;17.47;11.23;;;6.80;98.90;;;;;;5030691;28;20186;-73
2023/03/05 09:19:09;;;;;;;16.30;11.20;;;7.30;99.40;;;;;;5020899;28;20263;-74
2023/03/05 09:21:35;;;;;;;14.55;9.80;;;6.90;99.10;;;;;;5027474;28;20206;-74
2023/03/05 09:24:00;;;;;;;20.60;11.97;;;7.20;99.00;;;;;;5025622;28;20206;-73
2023/03/05 09:26:26;;;;;;;14.60;10.47;;;6.90;98.50;;;;;;5028743;28;20448;-74
2023/03/05 09:28:51;;;;;;;18.10;11.90;;;7.00;98.80;;;;;;5029374;28;20313;-74
2023/03/05 09:31:17;;;;;;;18.17;12.27;;;7.70;98.50;;;;;;5022093;28;20197;-75
2023/03/05 09:33:43;;;;;;;18.47;11.47;;;7.20;98.00;;;;;;5029471;28;20196;-74
2023/03/05 09:36:18;;;;;;;15.07;10.70;;;7.70;98.60;;;;;;5029684;28;20198;-75
2023/03/05 09:38:44;;;;;;;17.13;10.25;;;7.30;97.80;;;;;;5027580;28;20212;-75
2023/03/05 09:41:37;;;;;;;17.70;11.43;;;7.40;97.60;;;;;;5027355;28;20196;-69
2023/03/05 09:44:24;;;;;;;17.60;10.80;;;7.50;97.70;;;;;;5028605;28;20197;-70
2023/03/05 09:46:53;;;;;;;17.92;12.32;;;7.70;97.60;;;;;;5025803;28;20178;-71
2023/03/05 09:49:50;;;;;;;18.48;12.98;;;7.50;97.40;;;;;;5022299;28;20562;-71
2023/03/05 09:52:45;;;;;;;18.52;11.60;;;7.40;97.20;;;;;;5023876;28;20285;-70
2023/03/05 09:55:24;;;;;;;17.15;10.55;;;7.30;97.30;;;;;;5028666;28;20635;-71
2023/03/05 09:57:54;;;;;;;15.85;10.90;;;7.30;97.30;;;;;;5034069;28;20202;-72
2023/03/05 10:00:31;;;;;;;21.13;11.82;;;7.20;97.20;;;;;;5035826;28;20186;-74
2023/03/05 10:03:02;;;;;;;16.35;12.55;;;7.50;97.40;;;;;;5033125;28;20185;-71
2023/03/05 10:06:05;;;;;;;14.18;11.00;;;7.70;97.40;;;;;;5032801;28;20269;-70
2023/03/05 10:08:39;;;;;;;19.73;11.15;;;8.00;97.40;;;;;;5033533;28;20202;-69
2023/03/05 10:11:17;;;;;;;16.05;10.60;;;7.70;96.70;;;;;;5029290;28;20194;-66
2023/03/05 10:13:44;;;;;;;19.27;12.55;;;8.10;96.90;;;;;;5032781;28;20190;-69
2023/03/05 10:16:36;;;;;;;17.05;11.88;;;7.90;96.80;;;;;;5029782;28;20277;-69
2023/03/05 10:19:23;;;;;;;15.80;11.25;;;7.80;97.10;;;;;;5044337;28;20625;-71
2023/03/05 10:22:06;;;;;;;17.65;12.52;;;7.60;96.80;;;;;;5038169;28;20195;-68
2023/03/05 10:24:46;;;;;;;19.80;12.20;;;6.90;96.60;;;;;;5029701;28;20182;-68
2023/03/05 10:27:48;;;;;;;19.38;12.27;;;7.40;97.70;;;;;;5029846;28;20178;-68
2023/03/05 10:30:43;;;;;;;17.13;11.38;;;7.40;97.60;;;;;;5028309;28;20289;-67
2023/03/05 10:33:14;;;;;;;19.60;12.20;;;7.70;97.00;;;;;;4997041;28;20203;-67
2023/03/05 10:36:07;;;;;;;17.23;10.38;;;8.00;96.90;;;;;;5026564;28;20199;-66
2023/03/05 10:38:50;;;;;;;16.15;11.85;;;8.00;96.40;;;;;;5024783;28;20692;-67
2023/03/05 10:41:44;;;;;;;19.13;12.60;;;8.10;95.60;;;;;;5023968;28;20186;-67
2023/03/05 10:44:23;;;;;;;17.48;12.13;;;8.00;95.60;;;;;;5029175;28;20889;-68
2023/03/05 10:46:49;;;;;;;17.92;12.82;;;8.40;95.70;;;;;;5026414;28;20217;-68
2023/03/05 10:49:27;;;;;;;17.13;11.98;;;8.10;95.40;;;;;;5027025;28;20566;-69
2023/03/05 10:52:03;;;;;;;17.55;11.95;;;8.40;95.70;;;;;;5027611;28;20191;-67
2023/03/05 10:54:32;;;;;;;17.70;12.18;;;7.70;95.40;;;;;;5028379;28;20240;-69
2023/03/05 10:57:23;;;;;;;15.75;11.45;;;8.10;95.40;;;;;;5027941;28;20178;-70
2023/03/05 10:59:51;;;;;;;19.42;12.55;;;8.00;95.40;;;;;;5030023;28;20275;-70
2023/03/05 11:02:19;;;;;;;14.80;11.07;;;7.50;95.00;;;;;;5030386;28;20937;-71
2023/03/05 11:04:46;;;;;;;20.25;11.98;;;8.00;95.30;;;;;;5024503;28;20197;-68
2023/03/05 11:07:14;;;;;;;18.80;11.32;;;8.00;95.50;;;;;;5025398;28;20202;-69
2023/03/05 11:10:01;;;;;;;21.05;12.70;;;7.90;95.70;;;;;;5028821;28;20217;-68
2023/03/05 11:12:29;;;;;;;17.27;11.70;;;7.80;95.50;;;;;;5025611;28;20178;-69
2023/03/05 11:15:05;;;;;;;17.75;11.75;;;7.80;95.80;;;;;;5023867;28;20652;-69
2023/03/05 11:18:02;;;;;;;17.77;11.48;;;7.50;95.80;;;;;;5029879;28;20217;-69
2023/03/05 11:20:28;;;;;;;18.30;11.43;;;7.40;96.50;;;;;;5015928;28;20257;-68
2023/03/05 11:23:14;;;;;;;18.30;12.00;;;7.70;96.60;;;;;;5028046;28;20605;-69
2023/03/05 11:26:10;;;;;;;16.63;11.50;;;7.00;96.70;;;;;;5022006;28;20559;-69
2023/03/05 11:28:51;;;;;;;16.45;10.88;;;7.60;96.90;;;;;;5026885;28;20222;-69
2023/03/05 11:31:17;;;;;;;17.80;11.18;;;7.30;97.30;;;;;;5029600;28;20189;-69
2023/03/05 11:34:02;;;;;;;17.43;10.73;;;7.50;97.30;;;;;;5026643;28;20182;-68
2023/03/05 11:36:37;;;;;;;17.42;10.75;;;7.70;97.40;;;;;;5026890;28;20186;-69
2023/03/05 11:39:09;;;;;;;21.98;12.85;;;7.50;97.40;;;;;;5025658;28;20210;-69
2023/03/05 11:41:46;;;;;;;16.65;12.30;;;7.00;97.30;;;;;;5026186;28;20182;-69
2023/03/05 11:44:19;;;;;;;20.27;13.60;;;7.10;97.60;;;;;;5025874;28;20178;-69
2023/03/05 11:49:29;;;;;;;18.70;12.18;;;7.20;97.60;;;;;;5050953;28;20591;-70
2023/03/05 11:52:07;;;;;;;18.48;11.65;;;7.00;98.70;;;;;;5023701;28;20174;-70
2023/03/05 11:55:06;;;;;;;19.80;11.90;;;7.10;98.90;;;;;;5026092;28;20584;-70
2023/03/05 11:57:40;;;;;;;20.10;11.85;;;7.20;98.50;;;;;;5027321;28;20186;-69
2023/03/05 12:00:11;;;;;;;19.40;11.52;;;7.40;98.60;;;;;;5025379;28;20339;-70
2023/03/05 12:02:37;;;;;;;22.75;12.75;;;6.90;98.70;;;;;;5024221;28;20221;-69
2023/03/05 12:05:13;;;;;;;18.55;12.90;;;6.70;98.70;;;;;;5024000;28;20201;-69
2023/03/05 12:07:44;;;;;;;17.45;13.05;;;7.10;98.50;;;;;;5025730;28;20214;-70
2023/03/05 12:10:19;;;;;;;19.63;12.80;;;6.50;98.20;;;;;;5023760;28;20256;-70
2023/03/05 12:12:54;;;;;;;20.65;13.85;;;7.10;98.80;;;;;;5025547;28;20201;-73
2023/03/05 12:15:38;;;;;;;18.40;11.80;;;7.00;98.50;;;;;;5025416;28;20235;-73
2023/03/05 12:18:46;;;;;;;19.70;12.32;;;7.10;97.00;;;;;;5025579;28;20647;-73
2023/03/05 12:21:32;;;;;;;18.13;12.95;;;7.00;97.40;;;;;;5013350;28;20202;-74
2023/03/05 12:24:00;;;;;;;19.42;11.13;;;7.30;97.50;;;;;;5038808;28;20179;-73
2023/03/05 12:26:55;;;;;;;22.98;14.20;;;6.60;97.10;;;;;;5026098;28;20183;-73
2023/03/05 12:29:41;;;;;;;15.25;12.10;;;7.20;97.20;;;;;;5057920;28;20352;-76
2023/03/05 12:32:22;;;;;;;16.75;11.20;;;7.00;96.70;;;;;;5022300;28;20185;-73
2023/03/05 12:34:57;;;;;;;14.75;10.68;;;6.60;96.50;;;;;;5024505;28;20179;-73
2023/03/05 12:37:23;;;;;;;19.85;12.02;;;7.20;96.50;;;;;;5024506;28;20190;-73
2023/03/05 12:39:51;;;;;;;15.07;10.83;;;7.30;96.20;;;;;;5025360;28;20304;-72
2023/03/05 12:42:29;;;;;;;16.20;9.77;;;7.50;96.40;;;;;;5023247;28;20226;-73
2023/03/05 12:45:15;;;;;;;17.38;10.40;;;7.50;96.40;;;;;;5033789;28;20194;-73
2023/03/05 12:47:44;;;;;;;13.90;11.05;;;7.20;95.70;;;;;;5022383;28;20745;-73
2023/03/05 12:50:25;;;;;;;14.02;9.48;;;7.20;95.80;;;;;;5024330;28;20206;-72
2023/03/05 12:53:13;;;;;;;19.88;10.77;;;7.10;95.50;;;;;;5028480;28;20678;-71